sensor_id;sensor_type;location;lat;lon;timestamp;pressure;altitude;pressure_sealevel;temperature;humidity
57572;BME280;44459;43.522;24.470;2023-04-09T00:02:18;100659.03;;;7.56;100.00
57572;BME280;44459;43.522;24.470;2023-04-09T00:04:44;100659.88;;;7.55;100.00
57572;BME280;44459;43.522;24.470;2023-04-09T00:07:09;100667.63;;;7.49;100.00
57572;BME280;44459;43.522;24.470;2023-04-09T00:09:35;100671.94;;;7.47;100.00
57572;BME280;44459;43.522;24.470;2023-04-09T00:12:00;100667.41;;;7.41;100.00
57572;BME280;44459;43.522;24.470;2023-04-09T00:14:26;100661.94;;;7.32;100.00
57572;BME280;44459;43.522;24.470;2023-04-09T00:16:52;100670.88;;;7.39;100.00
57572;BME280;44459;43.522;24.470;2023-04-09T00:19:17;100669.91;;;7.37;100.00
57572;BME280;44459;43.522;24.470;2023-04-09T00:21:43;100685.06;;;7.47;100.00
57572;BME280;44459;43.522;24.470;2023-04-09T00:24:08;100676.28;;;7.46;100.00
57572;BME280;44459;43.522;24.470;2023-04-09T00:26:34;100665.56;;;7.37;100.00
57572;BME280;44459;43.522;24.470;2023-04-09T00:28:59;100673.50;;;7.40;100.00
57572;BME280;44459;43.522;24.470;2023-04-09T00:31:25;100676.97;;;7.38;100.00
57572;BME280;44459;43.522;24.470;2023-04-09T00:33:50;100676.06;;;7.37;100.00
57572;BME280;44459;43.522;24.470;2023-04-09T00:36:16;100674.34;;;7.39;100.00
57572;BME280;44459;43.522;24.470;2023-04-09T00:38:41;100678.81;;;7.42;100.00
57572;BME280;44459;43.522;24.470;2023-04-09T00:41:07;100671.72;;;7.39;100.00
57572;BME280;44459;43.522;24.470;2023-04-09T00:43:32;100678.91;;;7.46;100.00
57572;BME280;44459;43.522;24.470;2023-04-09T00:45:59;100672.00;;;7.50;100.00
57572;BME280;44459;43.522;24.470;2023-04-09T00:48:24;100668.59;;;7.54;100.00
57572;BME280;44459;43.522;24.470;2023-04-09T00:50:50;100669.38;;;7.50;100.00
57572;BME280;44459;43.522;24.470;2023-04-09T00:53:16;100681.81;;;7.57;100.00
57572;BME280;44459;43.522;24.470;2023-04-09T00:55:42;100674.03;;;7.60;100.00
57572;BME280;44459;43.522;24.470;2023-04-09T00:58:08;100674.13;;;7.65;100.00
57572;BME280;44459;43.522;24.470;2023-04-09T01:00:33;100674.06;;;7.62;100.00
57572;BME280;44459;43.522;24.470;2023-04-09T01:02:59;100674.94;;;7.62;100.00
57572;BME280;44459;43.522;24.470;2023-04-09T01:05:36;100676.50;;;7.54;100.00
57572;BME280;44459;43.522;24.470;2023-04-09T01:11:11;100673.59;;;7.43;100.00
57572;BME280;44459;43.522;24.470;2023-04-09T01:14:00;100668.19;;;7.37;100.00
57572;BME280;44459;43.522;24.470;2023-04-09T01:16:29;100667.28;;;7.37;100.00
57572;BME280;44459;43.522;24.470;2023-04-09T01:19:06;100659.94;;;7.24;100.00
57572;BME280;44459;43.522;24.470;2023-04-09T01:21:34;100660.78;;;7.23;100.00
57572;BME280;44459;43.522;24.470;2023-04-09T01:24:35;100662.53;;;7.22;100.00
57572;BME280;44459;43.522;24.470;2023-04-09T01:27:05;100673.91;;;7.23;100.00
57572;BME280;44459;43.522;24.470;2023-04-09T01:29:36;100671.13;;;7.17;100.00
57572;BME280;44459;43.522;24.470;2023-04-09T01:32:04;100675.72;;;7.24;100.00
57572;BME280;44459;43.522;24.470;2023-04-09T01:34:31;100667.00;;;7.25;100.00
57572;BME280;44459;43.522;24.470;2023-04-09T01:36:59;100665.13;;;7.21;100.00
57572;BME280;44459;43.522;24.470;2023-04-09T01:39:27;100676.75;;;7.30;100.00
57572;BME280;44459;43.522;24.470;2023-04-09T01:41:53;100681.19;;;7.33;100.00
57572;BME280;44459;43.522;24.470;2023-04-09T01:44:20;100682.97;;;7.34;100.00
57572;BME280;44459;43.522;24.470;2023-04-09T01:46:48;100678.53;;;7.31;100.00
57572;BME280;44459;43.522;24.470;2023-04-09T01:49:14;100666.13;;;7.26;100.00
57572;BME280;44459;43.522;24.470;2023-04-09T01:51:40;100670.53;;;7.27;100.00
57572;BME280;44459;43.522;24.470;2023-04-09T01:54:06;100672.94;;;7.19;100.00
57572;BME280;44459;43.522;24.470;2023-04-09T01:56:45;100673.69;;;7.14;100.00
57572;BME280;44459;43.522;24.470;2023-04-09T01:59:12;100680.72;;;7.15;100.00
57572;BME280;44459;43.522;24.470;2023-04-09T02:01:40;100680.72;;;7.15;100.00
57572;BME280;44459;43.522;24.470;2023-04-09T02:04:09;100677.31;;;7.19;100.00
57572;BME280;44459;43.522;24.470;2023-04-09T02:06:55;100677.22;;;7.14;100.00
57572;BME280;44459;43.522;24.470;2023-04-09T02:09:23;100664.97;;;7.15;100.00
57572;BME280;44459;43.522;24.470;2023-04-09T02:11:49;100660.50;;;7.12;100.00
57572;BME280;44459;43.522;24.470;2023-04-09T02:14:15;100667.41;;;7.08;100.00
57572;BME280;44459;43.522;24.470;2023-04-09T02:16:41;100660.44;;;7.09;100.00
57572;BME280;44459;43.522;24.470;2023-04-09T02:19:07;100674.50;;;7.11;100.00
57572;BME280;44459;43.522;24.470;2023-04-09T02:21:32;100668.38;;;7.11;100.00
57572;BME280;44459;43.522;24.470;2023-04-09T02:23:58;100674.44;;;7.09;100.00
57572;BME280;44459;43.522;24.470;2023-04-09T02:26:24;100670.03;;;7.08;100.00
57572;BME280;44459;43.522;24.470;2023-04-09T02:28:49;100674.69;;;7.19;100.00
57572;BME280;44459;43.522;24.470;2023-04-09T02:31:15;100674.66;;;7.17;100.00
57572;BME280;44459;43.522;24.470;2023-04-09T02:33:41;100676.34;;;7.15;100.00
57572;BME280;44459;43.522;24.470;2023-04-09T02:36:10;100670.03;;;7.08;100.00
57572;BME280;44459;43.522;24.470;2023-04-09T02:38:36;100678.13;;;7.16;100.00
57572;BME280;44459;43.522;24.470;2023-04-09T02:41:01;100686.22;;;7.24;100.00
57572;BME280;44459;43.522;24.470;2023-04-09T02:43:26;100675.66;;;7.22;100.00
57572;BME280;44459;43.522;24.470;2023-04-09T02:45:52;100679.34;;;7.29;100.00
57572;BME280;44459;43.522;24.470;2023-04-09T02:48:17;100674.13;;;7.30;100.00
57572;BME280;44459;43.522;24.470;2023-04-09T02:50:43;100677.69;;;7.32;100.00
57572;BME280;44459;43.522;24.470;2023-04-09T02:53:08;100685.53;;;7.31;100.00
57572;BME280;44459;43.522;24.470;2023-04-09T02:55:33;100684.75;;;7.35;100.00
57572;BME280;44459;43.522;24.470;2023-04-09T02:57:59;100690.84;;;7.32;100.00
57572;BME280;44459;43.522;24.470;2023-04-09T03:00:24;100681.97;;;7.29;100.00
57572;BME280;44459;43.522;24.470;2023-04-09T03:02:50;100691.63;;;7.30;100.00
57572;BME280;44459;43.522;24.470;2023-04-09T03:05:15;100682.81;;;7.28;100.00
57572;BME280;44459;43.522;24.470;2023-04-09T03:07:40;100680.28;;;7.31;100.00
57572;BME280;44459;43.522;24.470;2023-04-09T03:10:06;100682.09;;;7.33;100.00
57572;BME280;44459;43.522;24.470;2023-04-09T03:12:32;100673.22;;;7.30;100.00
57572;BME280;44459;43.522;24.470;2023-04-09T03:14:57;100678.56;;;7.33;100.00
57572;BME280;44459;43.522;24.470;2023-04-09T03:17:23;100678.34;;;7.24;100.00
57572;BME280;44459;43.522;24.470;2023-04-09T03:19:52;100684.50;;;7.26;100.00
57572;BME280;44459;43.522;24.470;2023-04-09T03:22:17;100689.69;;;7.23;100.00
57572;BME280;44459;43.522;24.470;2023-04-09T03:24:43;100679.25;;;7.26;100.00
57572;BME280;44459;43.522;24.470;2023-04-09T03:27:09;100689.94;;;7.32;100.00
57572;BME280;44459;43.522;24.470;2023-04-09T03:29:34;100677.56;;;7.28;100.00
57572;BME280;44459;43.522;24.470;2023-04-09T03:32:00;100687.13;;;7.26;100.00
57572;BME280;44459;43.522;24.470;2023-04-09T03:34:25;100685.53;;;7.31;100.00
57572;BME280;44459;43.522;24.470;2023-04-09T03:36:50;100684.69;;;7.32;100.00
57572;BME280;44459;43.522;24.470;2023-04-09T03:39:16;100683.63;;;7.25;100.00
57572;BME280;44459;43.522;24.470;2023-04-09T03:41:41;100678.94;;;7.14;100.00
57572;BME280;44459;43.522;24.470;2023-04-09T03:44:07;100678.88;;;7.11;100.00
57572;BME280;44459;43.522;24.470;2023-04-09T03:46:32;100675.97;;;7.01;100.00
57572;BME280;44459;43.522;24.470;2023-04-09T03:48:58;100676.94;;;7.05;100.00
57572;BME280;44459;43.522;24.470;2023-04-09T03:51:23;100682.97;;;7.01;100.00
57572;BME280;44459;43.522;24.470;2023-04-09T03:53:48;100688.19;;;6.99;100.00
57572;BME280;44459;43.522;24.470;2023-04-09T03:56:14;100690.81;;;6.99;100.00
57572;BME280;44459;43.522;24.470;2023-04-09T03:58:39;100698.00;;;7.06;100.00
57572;BME280;44459;43.522;24.470;2023-04-09T04:01:05;100698.00;;;7.06;100.00
57572;BME280;44459;43.522;24.470;2023-04-09T04:03:30;100698.03;;;7.08;100.00
57572;BME280;44459;43.522;24.470;2023-04-09T04:06:00;100697.91;;;7.03;100.00
57572;BME280;44459;43.522;24.470;2023-04-09T04:08:26;100694.56;;;7.09;100.00
57572;BME280;44459;43.522;24.470;2023-04-09T04:10:51;100698.13;;;7.11;100.00
57572;BME280;44459;43.522;24.470;2023-04-09T04:13:17;100697.25;;;7.11;100.00
57572;BME280;44459;43.522;24.470;2023-04-09T04:15:42;100693.66;;;7.08;100.00
57572;BME280;44459;43.522;24.470;2023-04-09T04:18:08;100699.13;;;7.16;100.00
57572;BME280;44459;43.522;24.470;2023-04-09T04:20:35;100697.53;;;7.21;100.00
57572;BME280;44459;43.522;24.470;2023-04-09T04:23:01;100693.16;;;7.22;100.00
57572;BME280;44459;43.522;24.470;2023-04-09T04:25:26;100692.91;;;7.13;100.00
57572;BME280;44459;43.522;24.470;2023-04-09T04:27:52;100688.00;;;7.25;100.00
57572;BME280;44459;43.522;24.470;2023-04-09T04:30:19;100691.88;;;7.39;100.00
57572;BME280;44459;43.522;24.470;2023-04-09T04:32:46;100686.34;;;7.28;100.00
57572;BME280;44459;43.522;24.470;2023-04-09T04:35:11;100691.88;;;7.39;100.00
57572;BME280;44459;43.522;24.470;2023-04-09T04:37:37;100692.75;;;7.39;100.00
57572;BME280;44459;43.522;24.470;2023-04-09T04:40:03;100698.19;;;7.47;100.00
57572;BME280;44459;43.522;24.470;2023-04-09T04:42:29;100697.50;;;7.54;100.00
57572;BME280;44459;43.522;24.470;2023-04-09T04:44:54;100704.13;;;7.73;100.00
57572;BME280;44459;43.522;24.470;2023-04-09T04:47:20;100707.84;;;7.82;100.00
57572;BME280;44459;43.522;24.470;2023-04-09T04:49:47;100709.78;;;7.88;100.00
57572;BME280;44459;43.522;24.470;2023-04-09T04:52:12;100700.56;;;8.06;100.00
57572;BME280;44459;43.522;24.470;2023-04-09T04:54:38;100709.22;;;8.02;100.00
57572;BME280;44459;43.522;24.470;2023-04-09T04:57:03;100708.38;;;8.03;100.00
57572;BME280;44459;43.522;24.470;2023-04-09T04:59:29;100711.44;;;8.22;100.00
57572;BME280;44459;43.522;24.470;2023-04-09T05:01:54;100712.69;;;8.37;100.00
57572;BME280;44459;43.522;24.470;2023-04-09T05:04:20;100703.91;;;8.37;100.00
57572;BME280;44459;43.522;24.470;2023-04-09T05:06:45;100711.75;;;8.34;100.00
57572;BME280;44459;43.522;24.470;2023-04-09T05:09:10;100717.28;;;8.46;100.00
57572;BME280;44459;43.522;24.470;2023-04-09T05:11:36;100707.59;;;8.43;100.00
57572;BME280;44459;43.522;24.470;2023-04-09T05:14:02;100714.00;;;8.56;100.00
57572;BME280;44459;43.522;24.470;2023-04-09T05:16:27;100720.41;;;8.69;100.00
57572;BME280;44459;43.522;24.470;2023-04-09T05:18:53;100718.91;;;8.80;100.00
57572;BME280;44459;43.522;24.470;2023-04-09T05:21:18;100718.22;;;8.90;100.00
57572;BME280;44459;43.522;24.470;2023-04-09T05:23:44;100722.19;;;9.12;100.00
57572;BME280;44459;43.522;24.470;2023-04-09T05:26:09;100717.56;;;9.00;100.00
57572;BME280;44459;43.522;24.470;2023-04-09T05:28:35;100716.91;;;9.12;100.00
57572;BME280;44459;43.522;24.470;2023-04-09T05:31:01;100730.25;;;9.21;100.00
57572;BME280;44459;43.522;24.470;2023-04-09T05:33:26;100718.22;;;9.33;99.13
57572;BME280;44459;43.522;24.470;2023-04-09T05:35:52;100722.63;;;9.34;98.18
57572;BME280;44459;43.522;24.470;2023-04-09T05:38:17;100718.97;;;9.28;97.44
57572;BME280;44459;43.522;24.470;2023-04-09T05:40:42;100719.47;;;9.55;97.93
57572;BME280;44459;43.522;24.470;2023-04-09T05:43:10;100720.84;;;9.83;99.48
57572;BME280;44459;43.522;24.470;2023-04-09T05:45:35;100714.84;;;9.91;96.67
57572;BME280;44459;43.522;24.470;2023-04-09T05:48:01;100722.19;;;10.10;95.23
57572;BME280;44459;43.522;24.470;2023-04-09T05:50:26;100717.31;;;10.33;98.04
57572;BME280;44459;43.522;24.470;2023-04-09T05:52:52;100719.94;;;10.33;91.52
57572;BME280;44459;43.522;24.470;2023-04-09T05:55:17;100722.59;;;10.35;91.67
57572;BME280;44459;43.522;24.470;2023-04-09T05:57:42;100709.44;;;10.38;93.90
57572;BME280;44459;43.522;24.470;2023-04-09T06:00:10;100723.88;;;10.63;93.21
57572;BME280;44459;43.522;24.470;2023-04-09T06:02:35;100713.44;;;10.72;91.57
57572;BME280;44459;43.522;24.470;2023-04-09T06:05:01;100724.03;;;10.76;89.50
57572;BME280;44459;43.522;24.470;2023-04-09T06:07:26;100722.41;;;10.84;90.10
57572;BME280;44459;43.522;24.470;2023-04-09T06:09:53;100719.97;;;10.99;91.21
57572;BME280;44459;43.522;24.470;2023-04-09T06:12:19;100716.69;;;11.22;89.84
57572;BME280;44459;43.522;24.470;2023-04-09T06:14:47;100705.28;;;11.26;87.88
57572;BME280;44459;43.522;24.470;2023-04-09T06:17:12;100716.09;;;11.48;86.87
57572;BME280;44459;43.522;24.470;2023-04-09T06:19:38;100724.16;;;11.59;87.41
57572;BME280;44459;43.522;24.470;2023-04-09T06:22:04;100722.38;;;11.58;88.38
57572;BME280;44459;43.522;24.470;2023-04-09T06:24:30;100712.53;;;11.43;86.28
57572;BME280;44459;43.522;24.470;2023-04-09T06:26:56;100713.44;;;11.47;85.37
57572;BME280;44459;43.522;24.470;2023-04-09T06:29:22;100722.31;;;11.52;88.00
57572;BME280;44459;43.522;24.470;2023-04-09T06:31:47;100715.19;;;11.45;85.58
57572;BME280;44459;43.522;24.470;2023-04-09T06:34:13;100712.47;;;11.37;87.27
57572;BME280;44459;43.522;24.470;2023-04-09T06:36:38;100707.91;;;11.23;87.63
57572;BME280;44459;43.522;24.470;2023-04-09T06:39:04;100711.50;;;11.31;87.30
57572;BME280;44459;43.522;24.470;2023-04-09T06:41:30;100715.97;;;11.36;85.28
57572;BME280;44459;43.522;24.470;2023-04-09T06:43:57;100726.81;;;11.63;87.73
57572;BME280;44459;43.522;24.470;2023-04-09T06:46:22;100726.81;;;11.62;87.18
57572;BME280;44459;43.522;24.470;2023-04-09T06:48:48;100719.72;;;11.58;86.85
57572;BME280;44459;43.522;24.470;2023-04-09T06:51:13;100720.59;;;11.55;86.56
57572;BME280;44459;43.522;24.470;2023-04-09T06:53:39;100716.81;;;11.32;88.90
57572;BME280;44459;43.522;24.470;2023-04-09T06:56:04;100729.28;;;11.47;87.05
57572;BME280;44459;43.522;24.470;2023-04-09T06:58:30;100720.53;;;11.51;85.54
57572;BME280;44459;43.522;24.470;2023-04-09T07:00:56;100728.50;;;11.54;85.03
57572;BME280;44459;43.522;24.470;2023-04-09T07:03:21;100730.53;;;11.76;83.61
57572;BME280;44459;43.522;24.470;2023-04-09T07:05:46;100725.59;;;12.22;84.42
57572;BME280;44459;43.522;24.470;2023-04-09T07:08:13;100728.34;;;12.40;79.99
57572;BME280;44459;43.522;24.470;2023-04-09T07:10:38;100738.06;;;12.38;80.22
57572;BME280;44459;43.522;24.470;2023-04-09T07:13:04;100745.13;;;12.40;81.11
57572;BME280;44459;43.522;24.470;2023-04-09T07:15:29;100739.97;;;12.61;79.03
57572;BME280;44459;43.522;24.470;2023-04-09T07:17:55;100741.00;;;12.86;79.36
57572;BME280;44459;43.522;24.470;2023-04-09T07:20:21;100746.47;;;13.18;79.01
57572;BME280;44459;43.522;24.470;2023-04-09T07:22:47;100746.59;;;13.53;76.34
57572;BME280;44459;43.522;24.470;2023-04-09T07:25:13;100741.28;;;13.71;75.43
57572;BME280;44459;43.522;24.470;2023-04-09T07:27:39;100746.63;;;13.89;72.88
57572;BME280;44459;43.522;24.470;2023-04-09T07:30:05;100748.41;;;14.11;75.68
57572;BME280;44459;43.522;24.470;2023-04-09T07:32:31;100741.31;;;14.33;73.59
57572;BME280;44459;43.522;24.470;2023-04-09T07:34:56;100741.31;;;14.21;71.74
57572;BME280;44459;43.522;24.470;2023-04-09T07:37:23;100745.75;;;14.10;68.07
57572;BME280;44459;43.522;24.470;2023-04-09T07:39:49;100747.53;;;14.43;67.65
57572;BME280;44459;43.522;24.470;2023-04-09T07:42:15;100756.34;;;14.02;69.70
57572;BME280;44459;43.522;24.470;2023-04-09T07:44:41;100745.72;;;13.77;65.93
57572;BME280;44459;43.522;24.470;2023-04-09T07:47:07;100749.28;;;13.95;70.82
57572;BME280;44459;43.522;24.470;2023-04-09T07:49:36;100754.63;;;14.39;68.67
57572;BME280;44459;43.522;24.470;2023-04-09T07:52:02;100752.81;;;14.32;67.16
57572;BME280;44459;43.522;24.470;2023-04-09T07:54:28;100761.69;;;14.25;69.67
57572;BME280;44459;43.522;24.470;2023-04-09T07:56:55;100761.69;;;14.42;69.40
57572;BME280;44459;43.522;24.470;2023-04-09T07:59:22;100764.34;;;14.52;67.70
57572;BME280;44459;43.522;24.470;2023-04-09T08:01:47;100768.78;;;14.35;66.91
57572;BME280;44459;43.522;24.470;2023-04-09T08:04:13;100766.13;;;14.16;68.78
57572;BME280;44459;43.522;24.470;2023-04-09T08:06:38;100769.63;;;14.10;71.59
57572;BME280;44459;43.522;24.470;2023-04-09T08:09:03;100759.91;;;14.18;70.34
57572;BME280;44459;43.522;24.470;2023-04-09T08:11:29;100770.53;;;14.23;68.56
57572;BME280;44459;43.522;24.470;2023-04-09T08:13:55;100763.47;;;14.41;68.06
57572;BME280;44459;43.522;24.470;2023-04-09T08:16:22;100768.78;;;14.53;64.58
57572;BME280;44459;43.522;24.470;2023-04-09T08:18:52;100762.56;;;14.51;62.82
57572;BME280;44459;43.522;24.470;2023-04-09T08:21:17;100761.69;;;14.37;63.70
57572;BME280;44459;43.522;24.470;2023-04-09T08:23:43;100770.50;;;13.74;68.42
57572;BME280;44459;43.522;24.470;2023-04-09T08:26:09;100758.06;;;13.55;69.56
57572;BME280;44459;43.522;24.470;2023-04-09T08:28:34;100760.72;;;13.46;70.16
57572;BME280;44459;43.522;24.470;2023-04-09T08:31:00;100754.47;;;13.36;69.84
57572;BME280;44459;43.522;24.470;2023-04-09T08:33:25;100758.97;;;13.65;72.19
57572;BME280;44459;43.522;24.470;2023-04-09T08:35:51;100762.56;;;13.91;69.94
57572;BME280;44459;43.522;24.470;2023-04-09T08:38:18;100753.72;;;14.19;68.64
57572;BME280;44459;43.522;24.470;2023-04-09T08:40:43;100757.25;;;14.27;69.46
57572;BME280;44459;43.522;24.470;2023-04-09T08:43:09;100758.16;;;14.46;66.61
57572;BME280;44459;43.522;24.470;2023-04-09T08:45:39;100754.59;;;14.24;66.79
57572;BME280;44459;43.522;24.470;2023-04-09T08:48:08;100764.31;;;13.96;67.13
57572;BME280;44459;43.522;24.470;2023-04-09T08:50:34;100771.41;;;14.03;68.36
57572;BME280;44459;43.522;24.470;2023-04-09T08:53:04;100760.75;;;13.88;68.89
57572;BME280;44459;43.522;24.470;2023-04-09T08:55:31;100766.09;;;13.91;69.48
57572;BME280;44459;43.522;24.470;2023-04-09T08:57:59;100757.22;;;13.83;68.75
57572;BME280;44459;43.522;24.470;2023-04-09T09:00:25;100759.00;;;13.92;70.93
57572;BME280;44459;43.522;24.470;2023-04-09T09:03:07;100765.25;;;14.35;67.12
57572;BME280;44459;43.522;24.470;2023-04-09T09:05:39;100761.66;;;14.63;65.18
57572;BME280;44459;43.522;24.470;2023-04-09T09:08:09;100751.88;;;14.88;65.65
57572;BME280;44459;43.522;24.470;2023-04-09T09:10:41;100751.78;;;15.04;64.08
57572;BME280;44459;43.522;24.470;2023-04-09T09:15:41;100749.16;;;15.00;61.71
57572;BME280;44459;43.522;24.470;2023-04-09T09:18:07;100751.94;;;14.57;65.06
57572;BME280;44459;43.522;24.470;2023-04-09T09:20:33;100742.19;;;14.20;64.53
57572;BME280;44459;43.522;24.470;2023-04-09T09:22:58;100755.47;;;13.94;68.66
57572;BME280;44459;43.522;24.470;2023-04-09T09:25:24;100744.88;;;14.02;69.27
57572;BME280;44459;43.522;24.470;2023-04-09T09:27:50;100749.28;;;14.03;64.85
57572;BME280;44459;43.522;24.470;2023-04-09T09:30:21;100752.81;;;13.94;67.72
57572;BME280;44459;43.522;24.470;2023-04-09T09:32:50;100758.13;;;14.09;63.56
57572;BME280;44459;43.522;24.470;2023-04-09T09:35:16;100744.00;;;14.23;65.11
57572;BME280;44459;43.522;24.470;2023-04-09T09:37:41;100745.72;;;14.55;65.81
57572;BME280;44459;43.522;24.470;2023-04-09T09:40:07;100737.56;;;15.18;64.13
57572;BME280;44459;43.522;24.470;2023-04-09T09:42:33;100728.44;;;15.67;60.39
57572;BME280;44459;43.522;24.470;2023-04-09T09:44:59;100728.69;;;16.42;59.83
57572;BME280;44459;43.522;24.470;2023-04-09T09:47:26;100730.56;;;17.18;58.62
57572;BME280;44459;43.522;24.470;2023-04-09T09:49:53;100735.31;;;17.60;57.39
57572;BME280;44459;43.522;24.470;2023-04-09T09:52:23;100729.16;;;18.13;53.02
57572;BME280;44459;43.522;24.470;2023-04-09T09:54:51;100735.09;;;17.09;54.77
57572;BME280;44459;43.522;24.470;2023-04-09T09:57:23;100722.47;;;16.43;54.68
57572;BME280;44459;43.522;24.470;2023-04-09T09:59:53;100719.84;;;16.40;54.22
57572;BME280;44459;43.522;24.470;2023-04-09T10:02:22;100724.81;;;16.79;57.29
57572;BME280;44459;43.522;24.470;2023-04-09T10:04:49;100721.47;;;17.31;54.63
57572;BME280;44459;43.522;24.470;2023-04-09T10:07:18;100716.84;;;17.45;51.44
57572;BME280;44459;43.522;24.470;2023-04-09T10:09:48;100708.63;;;17.60;49.66
57572;BME280;44459;43.522;24.470;2023-04-09T10:12:13;100719.63;;;16.66;52.15
57572;BME280;44459;43.522;24.470;2023-04-09T10:14:40;100710.78;;;15.54;55.22
57572;BME280;44459;43.522;24.470;2023-04-09T10:17:06;100703.56;;;15.74;54.60
57572;BME280;44459;43.522;24.470;2023-04-09T10:19:39;100705.50;;;15.43;57.91
57572;BME280;44459;43.522;24.470;2023-04-09T10:22:12;100701.03;;;15.45;57.06
57572;BME280;44459;43.522;24.470;2023-04-09T10:24:40;100706.56;;;15.10;59.10
57572;BME280;44459;43.522;24.470;2023-04-09T10:27:14;100704.88;;;14.91;57.16
57572;BME280;44459;43.522;24.470;2023-04-09T10:29:47;100691.53;;;16.30;55.37
57572;BME280;44459;43.522;24.470;2023-04-09T10:32:20;100697.03;;;16.94;53.63
57572;BME280;44459;43.522;24.470;2023-04-09T10:34:48;100685.91;;;17.32;50.39
57572;BME280;44459;43.522;24.470;2023-04-09T10:37:22;100690.97;;;18.05;51.41
57572;BME280;44459;43.522;24.470;2023-04-09T10:39:49;100685.31;;;17.71;53.30
57572;BME280;44459;43.522;24.470;2023-04-09T10:42:23;100689.72;;;18.26;50.05
57572;BME280;44459;43.522;24.470;2023-04-09T10:45:13;100688.41;;;18.00;47.16
57572;BME280;44459;43.522;24.470;2023-04-09T10:47:41;100683.91;;;18.53;46.94
57572;BME280;44459;43.522;24.470;2023-04-09T10:52:43;100663.91;;;19.92;42.42
57572;BME280;44459;43.522;24.470;2023-04-09T10:55:28;100665.34;;;20.39;42.92
57572;BME280;44459;43.522;24.470;2023-04-09T10:57:54;100662.81;;;19.62;41.09
57572;BME280;44459;43.522;24.470;2023-04-09T11:00:20;100654.63;;;18.91;44.05
57572;BME280;44459;43.522;24.470;2023-04-09T11:05:49;100650.66;;;17.68;44.76
57572;BME280;44459;43.522;24.470;2023-04-09T11:08:15;100650.00;;;18.06;43.00
57572;BME280;44459;43.522;24.470;2023-04-09T11:10:42;100654.00;;;18.30;45.17
57572;BME280;44459;43.522;24.470;2023-04-09T11:13:15;100646.31;;;18.60;44.04
57572;BME280;44459;43.522;24.470;2023-04-09T11:15:43;100654.56;;;18.47;42.33
57572;BME280;44459;43.522;24.470;2023-04-09T11:18:13;100650.69;;;18.19;41.70
57572;BME280;44459;43.522;24.470;2023-04-09T11:20:39;100645.03;;;18.80;43.92
57572;BME280;44459;43.522;24.470;2023-04-09T11:23:05;100649.16;;;19.74;45.97
57572;BME280;44459;43.522;24.470;2023-04-09T11:25:31;100649.28;;;20.03;40.75
57572;BME280;44459;43.522;24.470;2023-04-09T11:27:58;100649.78;;;19.85;38.45
57572;BME280;44459;43.522;24.470;2023-04-09T11:30:23;100641.78;;;19.82;38.40
57572;BME280;44459;43.522;24.470;2023-04-09T11:32:49;100638.28;;;18.62;40.55
57572;BME280;44459;43.522;24.470;2023-04-09T11:35:17;100650.31;;;17.30;45.76
57572;BME280;44459;43.522;24.470;2023-04-09T11:37:43;100643.94;;;16.77;46.59
57572;BME280;44459;43.522;24.470;2023-04-09T11:40:20;100646.97;;;16.42;45.03
57572;BME280;44459;43.522;24.470;2023-04-09T11:42:48;100634.59;;;17.10;48.27
57572;BME280;44459;43.522;24.470;2023-04-09T11:45:15;100631.94;;;18.20;42.70
57572;BME280;44459;43.522;24.470;2023-04-09T11:47:42;100627.63;;;18.59;41.90
57572;BME280;44459;43.522;24.470;2023-04-09T11:50:10;100625.03;;;18.97;40.90
57572;BME280;44459;43.522;24.470;2023-04-09T11:52:36;100630.47;;;18.50;38.33
57572;BME280;44459;43.522;24.470;2023-04-09T11:55:02;100620.31;;;18.69;39.36
57572;BME280;44459;43.522;24.470;2023-04-09T11:57:45;100611.34;;;18.25;41.56
57572;BME280;44459;43.522;24.470;2023-04-09T12:00:13;100618.59;;;18.65;40.29
57572;BME280;44459;43.522;24.470;2023-04-09T12:02:40;100610.31;;;19.17;39.58
57572;BME280;44459;43.522;24.470;2023-04-09T12:05:11;100611.38;;;18.68;37.48
57572;BME280;44459;43.522;24.470;2023-04-09T12:07:38;100603.31;;;18.71;37.61
57572;BME280;44459;43.522;24.470;2023-04-09T12:10:08;100603.56;;;18.59;40.48
57572;BME280;44459;43.522;24.470;2023-04-09T12:12:44;100608.19;;;18.49;38.31
57572;BME280;44459;43.522;24.470;2023-04-09T12:15:23;100606.09;;;18.67;38.56
57572;BME280;44459;43.522;24.470;2023-04-09T12:17:57;100590.88;;;18.24;38.51
57572;BME280;44459;43.522;24.470;2023-04-09T12:22:55;100595.88;;;17.95;40.23
57572;BME280;44459;43.522;24.470;2023-04-09T12:25:20;100599.53;;;17.36;39.46
57572;BME280;44459;43.522;24.470;2023-04-09T12:27:46;100600.41;;;16.74;40.95
57572;BME280;44459;43.522;24.470;2023-04-09T12:30:11;100599.09;;;17.06;43.08
57572;BME280;44459;43.522;24.470;2023-04-09T12:32:37;100595.88;;;16.83;40.40
57572;BME280;44459;43.522;24.470;2023-04-09T12:35:03;100592.69;;;16.55;40.50
57572;BME280;44459;43.522;24.470;2023-04-09T12:37:29;100589.22;;;16.43;41.76
57572;BME280;44459;43.522;24.470;2023-04-09T12:39:54;100593.50;;;16.60;45.54
57572;BME280;44459;43.522;24.470;2023-04-09T12:42:20;100585.13;;;16.89;46.49
57572;BME280;44459;43.522;24.470;2023-04-09T12:44:46;100589.50;;;16.92;43.49
57572;BME280;44459;43.522;24.470;2023-04-09T12:47:11;100586.34;;;16.64;44.92
57572;BME280;44459;43.522;24.470;2023-04-09T12:49:37;100587.38;;;16.51;46.68
57572;BME280;44459;43.522;24.470;2023-04-09T12:52:03;100589.16;;;16.50;44.93
57572;BME280;44459;43.522;24.470;2023-04-09T12:54:28;100581.44;;;16.25;44.58